Aéroport int. de Victoria, Colombie-Britannique

Conditions des dernières 24 heures

Ce tableau est un sommaire des conditions météo couvrant les dernières 24 heures. Ce sommaire inclut les paramètres suivants: température, humidité, point de rosée, direction et vitesse du vent, pression barométrique, facteur de refroidissement éolien ou indice humidex.
Date / Heure
(HAP)
Conditions Temp (°F) Humidite (%) Point de rose (°F) Vent (mph) Pression (pouces) Vis (mi) Humidex
23 août 2014
6:00 Généralement nuageux 52   91 49 O 3 30.1 30 *
5:00 Généralement nuageux 52   94 50 ONO 2 30.1 30 *
4:00 Généralement nuageux 54 93 52 E 3 30.1 30 *
3:00 Généralement nuageux 54 93 52 ESE 3 30.1 30 *
2:00 Généralement nuageux 55 92 52 E 2 30.1 30 *
1:00 Nuageux 54 92 52 ESE 3 30.1 30 *
0:00 Nuageux 55 91 52 SE 3 30.1 30 *
22 août 2014
23:00 Nuageux 56 90 53 ESE 3 30.1 30 *
22:00 Nuageux 57 85 53 ESE 3 30.1 30 *
21:00 Nuageux 60 77 53 SE 4 30.1 30 *
20:00 N.D. 65 66 54 ESE 5 30.1 30 *
19:00 Généralement nuageux 69 60 55 SE 4 30.0 30 *
18:00 Généralement nuageux 71 54 54 ESE 5 30.0 30 *
17:00 Généralement nuageux 72 54 55 ESE 6 30.1 30 76
16:00 Généralement nuageux 71 54 54 ESE 8 30.1 30 *
15:00 Généralement nuageux 73   49 53 ESE 7 30.1 30 77
14:00 Généralement nuageux 72 52 53 E 6 30.1 30 *
13:00 Généralement nuageux 69 58 54 ENE 6 30.1 30 *
12:00 Généralement nuageux 68 62 54 ESE 6 30.1 30 *
11:00 Généralement nuageux 66 65 55 ESE 5 30.1 30 *
10:00 Généralement nuageux 65 71 56 O 4 30.1 30 *
9:00 Généralement nuageux 61 85 56 ONO 2 30.1 30 *
8:00 Généralement nuageux 57 92 54 calme 30.1 30 *
7:00 Partiellement nuageux 54 93 52 calme 30.0 30 *
6:00 Partiellement nuageux 52   96 51 O 3 30.0 30 *
N.D.
non disponible
 ↑ 
température la plus haute
 ↓ 
température la plus basse
*
Valeur non significative.

Si vous désirez plus de données historiques sur les conditions météo, s.v.p. visitez Données climatologiques en ligne.